<?xml version="1.0" encoding="UTF-8" standalone="no" ?>
<gpx xmlns="http://www.topografix.com/GPX/1/1" xmlns:xsi="http://www.w3.org/2001/XMLSchema-instance" xsi:schemaLocation="http://www.topografix.com/GPX/1/1 http://www.topografix.com/GPX/1/1/gpx.xsd" version="1.1" creator="VisuGPX - https://www.visugpx.com">
  <metadata>
    <name>OMS CHENOVE Marche du vendredi 07 septembre 2012</name>
    <desc><![CDATA[De Couchey à Couchey en longeant Fixin et Marsannay]]></desc>
  </metadata>
  <trk>
    <name><![CDATA[OMS CHENOVE Marche du vendredi 07 septembre 2012_1]]></name>
    <trkseg>
      <trkpt lat="47.26028" lon="4.97903">
        <ele>269.421</ele>
        <time>2012-09-07T08:14:38Z</time>
      </trkpt>
      <trkpt lat="47.26028" lon="4.97903">
        <ele>269.421</ele>
        <time>2012-09-07T08:14:49Z</time>
      </trkpt>
      <trkpt lat="47.26028" lon="4.979">
        <ele>269.195</ele>
        <time>2012-09-07T08:15:00Z</time>
      </trkpt>
      <trkpt lat="47.26027" lon="4.979">
        <ele>268.975</ele>
        <time>2012-09-07T08:15:11Z</time>
      </trkpt>
      <trkpt lat="47.26027" lon="4.97898">
        <ele>268.759</ele>
        <time>2012-09-07T08:15:22Z</time>
      </trkpt>
      <trkpt lat="47.26027" lon="4.97898">
        <ele>268.759</ele>
        <time>2012-09-07T08:15:33Z</time>
      </trkpt>
      <trkpt lat="47.26027" lon="4.979">
        <ele>269.241</ele>
        <time>2012-09-07T08:15:44Z</time>
      </trkpt>
      <trkpt lat="47.26028" lon="4.97898">
        <ele>270.427</ele>
        <time>2012-09-07T08:15:55Z</time>
      </trkpt>
      <trkpt lat="47.26028" lon="4.97898">
        <ele>270.427</ele>
        <time>2012-09-07T08:16:06Z</time>
      </trkpt>
      <trkpt lat="47.26028" lon="4.97898">
        <ele>270.427</ele>
        <time>2012-09-07T08:16:17Z</time>
      </trkpt>
      <trkpt lat="47.26028" lon="4.97898">
        <ele>271.257</ele>
        <time>2012-09-07T08:16:28Z</time>
      </trkpt>
      <trkpt lat="47.26032" lon="4.97893">
        <ele>273.721</ele>
        <time>2012-09-07T08:16:39Z</time>
      </trkpt>
      <trkpt lat="47.26033" lon="4.97885">
        <ele>278.305</ele>
        <time>2012-09-07T08:16:50Z</time>
      </trkpt>
      <trkpt lat="47.26032" lon="4.9788">
        <ele>278.432</ele>
        <time>2012-09-07T08:17:01Z</time>
      </trkpt>
      <trkpt lat="47.26035" lon="4.97867">
        <ele>281.325</ele>
        <time>2012-09-07T08:17:12Z</time>
      </trkpt>
      <trkpt lat="47.26047" lon="4.97848">
        <ele>281.965</ele>
        <time>2012-09-07T08:17:23Z</time>
      </trkpt>
      <trkpt lat="47.26055" lon="4.97833">
        <ele>284.151</ele>
        <time>2012-09-07T08:17:34Z</time>
      </trkpt>
      <trkpt lat="47.26062" lon="4.97828">
        <ele>286.242</ele>
        <time>2012-09-07T08:17:45Z</time>
      </trkpt>
      <trkpt lat="47.26067" lon="4.97823">
        <ele>286.472</ele>
        <time>2012-09-07T08:17:56Z</time>
      </trkpt>
      <trkpt lat="47.26063" lon="4.97808">
        <ele>288.275</ele>
        <time>2012-09-07T08:18:07Z</time>
      </trkpt>
      <trkpt lat="47.26065" lon="4.97788">
        <ele>288</ele>
        <time>2012-09-07T08:18:18Z</time>
      </trkpt>
      <trkpt lat="47.26068" lon="4.97778">
        <ele>289.593</ele>
        <time>2012-09-07T08:18:29Z</time>
      </trkpt>
      <trkpt lat="47.2607" lon="4.97767">
        <ele>290.593</ele>
        <time>2012-09-07T08:18:40Z</time>
      </trkpt>
      <trkpt lat="47.26073" lon="4.9774">
        <ele>294.855</ele>
        <time>2012-09-07T08:18:51Z</time>
      </trkpt>
      <trkpt lat="47.26072" lon="4.97735">
        <ele>294.686</ele>
        <time>2012-09-07T08:19:02Z</time>
      </trkpt>
      <trkpt lat="47.26068" lon="4.97707">
        <ele>295.304</ele>
        <time>2012-09-07T08:19:13Z</time>
      </trkpt>
      <trkpt lat="47.26067" lon="4.9769">
        <ele>295.315</ele>
        <time>2012-09-07T08:19:24Z</time>
      </trkpt>
      <trkpt lat="47.2607" lon="4.9767">
        <ele>298.27</ele>
        <time>2012-09-07T08:19:35Z</time>
      </trkpt>
      <trkpt lat="47.26075" lon="4.97653">
        <ele>298.12</ele>
        <time>2012-09-07T08:19:46Z</time>
      </trkpt>
      <trkpt lat="47.26073" lon="4.97645">
        <ele>299.019</ele>
        <time>2012-09-07T08:19:57Z</time>
      </trkpt>
      <trkpt lat="47.26065" lon="4.9763">
        <ele>299.231</ele>
        <time>2012-09-07T08:20:08Z</time>
      </trkpt>
      <trkpt lat="47.26058" lon="4.97622">
        <ele>299.882</ele>
        <time>2012-09-07T08:20:19Z</time>
      </trkpt>
      <trkpt lat="47.26045" lon="4.97617">
        <ele>302.047</ele>
        <time>2012-09-07T08:20:30Z</time>
      </trkpt>
      <trkpt lat="47.26027" lon="4.97618">
        <ele>303.472</ele>
        <time>2012-09-07T08:20:41Z</time>
      </trkpt>
      <trkpt lat="47.26017" lon="4.97615">
        <ele>302.633</ele>
        <time>2012-09-07T08:20:52Z</time>
      </trkpt>
      <trkpt lat="47.26007" lon="4.97612">
        <ele>302.255</ele>
        <time>2012-09-07T08:21:03Z</time>
      </trkpt>
      <trkpt lat="47.25985" lon="4.9761">
        <ele>302.639</ele>
        <time>2012-09-07T08:21:14Z</time>
      </trkpt>
      <trkpt lat="47.25973" lon="4.97608">
        <ele>302.973</ele>
        <time>2012-09-07T08:21:25Z</time>
      </trkpt>
      <trkpt lat="47.25955" lon="4.97612">
        <ele>303.18</ele>
        <time>2012-09-07T08:21:36Z</time>
      </trkpt>
      <trkpt lat="47.25945" lon="4.97607">
        <ele>303.998</ele>
        <time>2012-09-07T08:21:47Z</time>
      </trkpt>
      <trkpt lat="47.25938" lon="4.97595">
        <ele>304.457</ele>
        <time>2012-09-07T08:21:58Z</time>
      </trkpt>
      <trkpt lat="47.25933" lon="4.97575">
        <ele>302.482</ele>
        <time>2012-09-07T08:22:09Z</time>
      </trkpt>
      <trkpt lat="47.25932" lon="4.97562">
        <ele>302.78</ele>
        <time>2012-09-07T08:22:20Z</time>
      </trkpt>
      <trkpt lat="47.2593" lon="4.97535">
        <ele>303.635</ele>
        <time>2012-09-07T08:22:31Z</time>
      </trkpt>
      <trkpt lat="47.25933" lon="4.97512">
        <ele>305.223</ele>
        <time>2012-09-07T08:22:42Z</time>
      </trkpt>
      <trkpt lat="47.25932" lon="4.97492">
        <ele>307.491</ele>
        <time>2012-09-07T08:22:53Z</time>
      </trkpt>
      <trkpt lat="47.2593" lon="4.97467">
        <ele>308.401</ele>
        <time>2012-09-07T08:23:04Z</time>
      </trkpt>
      <trkpt lat="47.2593" lon="4.97443">
        <ele>308.554</ele>
        <time>2012-09-07T08:23:15Z</time>
      </trkpt>
      <trkpt lat="47.25932" lon="4.9742">
        <ele>308.048</ele>
        <time>2012-09-07T08:23:26Z</time>
      </trkpt>
      <trkpt lat="47.25932" lon="4.97403">
        <ele>308.385</ele>
        <time>2012-09-07T08:23:37Z</time>
      </trkpt>
      <trkpt lat="47.2593" lon="4.9739">
        <ele>308.725</ele>
        <time>2012-09-07T08:23:48Z</time>
      </trkpt>
      <trkpt lat="47.25928" lon="4.97372">
        <ele>310.386</ele>
        <time>2012-09-07T08:23:59Z</time>
      </trkpt>
      <trkpt lat="47.25925" lon="4.9735">
        <ele>310.698</ele>
        <time>2012-09-07T08:24:10Z</time>
      </trkpt>
      <trkpt lat="47.25923" lon="4.97338">
        <ele>311.492</ele>
        <time>2012-09-07T08:24:21Z</time>
      </trkpt>
      <trkpt lat="47.25922" lon="4.9734">
        <ele>311.405</ele>
        <time>2012-09-07T08:24:32Z</time>
      </trkpt>
      <trkpt lat="47.2592" lon="4.97338">
        <ele>310.634</ele>
        <time>2012-09-07T08:24:43Z</time>
      </trkpt>
      <trkpt lat="47.2592" lon="4.97338">
        <ele>310.634</ele>
        <time>2012-09-07T08:24:54Z</time>
      </trkpt>
      <trkpt lat="47.2592" lon="4.97342">
        <ele>311.277</ele>
        <time>2012-09-07T08:25:05Z</time>
      </trkpt>
      <trkpt lat="47.2592" lon="4.9734">
        <ele>311.465</ele>
        <time>2012-09-07T08:25:16Z</time>
      </trkpt>
      <trkpt lat="47.25915" lon="4.9734">
        <ele>313.097</ele>
        <time>2012-09-07T08:25:27Z</time>
      </trkpt>
      <trkpt lat="47.25903" lon="4.97335">
        <ele>314.711</ele>
        <time>2012-09-07T08:25:38Z</time>
      </trkpt>
      <trkpt lat="47.25892" lon="4.97332">
        <ele>318.029</ele>
        <time>2012-09-07T08:25:49Z</time>
      </trkpt>
      <trkpt lat="47.25878" lon="4.97323">
        <ele>319.941</ele>
        <time>2012-09-07T08:26:00Z</time>
      </trkpt>
      <trkpt lat="47.2587" lon="4.97322">
        <ele>321.821</ele>
        <time>2012-09-07T08:26:11Z</time>
      </trkpt>
      <trkpt lat="47.25857" lon="4.97315">
        <ele>323.312</ele>
        <time>2012-09-07T08:26:22Z</time>
      </trkpt>
      <trkpt lat="47.25852" lon="4.97312">
        <ele>324.859</ele>
        <time>2012-09-07T08:26:33Z</time>
      </trkpt>
      <trkpt lat="47.25832" lon="4.97297">
        <ele>328.607</ele>
        <time>2012-09-07T08:26:44Z</time>
      </trkpt>
      <trkpt lat="47.25817" lon="4.9729">
        <ele>331.352</ele>
        <time>2012-09-07T08:26:55Z</time>
      </trkpt>
      <trkpt lat="47.25808" lon="4.97287">
        <ele>331</ele>
        <time>2012-09-07T08:27:06Z</time>
      </trkpt>
      <trkpt lat="47.25792" lon="4.97275">
        <ele>331.609</ele>
        <time>2012-09-07T08:27:17Z</time>
      </trkpt>
      <trkpt lat="47.25777" lon="4.9727">
        <ele>332.487</ele>
        <time>2012-09-07T08:27:28Z</time>
      </trkpt>
      <trkpt lat="47.25758" lon="4.97267">
        <ele>334.151</ele>
        <time>2012-09-07T08:27:39Z</time>
      </trkpt>
      <trkpt lat="47.2575" lon="4.97265">
        <ele>334.802</ele>
        <time>2012-09-07T08:27:50Z</time>
      </trkpt>
      <trkpt lat="47.25738" lon="4.97258">
        <ele>335.725</ele>
        <time>2012-09-07T08:28:01Z</time>
      </trkpt>
      <trkpt lat="47.25723" lon="4.97253">
        <ele>336.517</ele>
        <time>2012-09-07T08:28:12Z</time>
      </trkpt>
      <trkpt lat="47.25703" lon="4.97243">
        <ele>337.992</ele>
        <time>2012-09-07T08:28:23Z</time>
      </trkpt>
      <trkpt lat="47.25693" lon="4.9724">
        <ele>337</ele>
        <time>2012-09-07T08:28:34Z</time>
      </trkpt>
      <trkpt lat="47.25673" lon="4.97225">
        <ele>343.136</ele>
        <time>2012-09-07T08:28:45Z</time>
      </trkpt>
      <trkpt lat="47.25658" lon="4.97213">
        <ele>345.346</ele>
        <time>2012-09-07T08:28:56Z</time>
      </trkpt>
      <trkpt lat="47.25647" lon="4.97197">
        <ele>344.996</ele>
        <time>2012-09-07T08:29:07Z</time>
      </trkpt>
      <trkpt lat="47.25633" lon="4.97177">
        <ele>342.426</ele>
        <time>2012-09-07T08:29:18Z</time>
      </trkpt>
      <trkpt lat="47.2562" lon="4.97165">
        <ele>344.186</ele>
        <time>2012-09-07T08:29:29Z</time>
      </trkpt>
      <trkpt lat="47.25607" lon="4.9716">
        <ele>343.836</ele>
        <time>2012-09-07T08:29:40Z</time>
      </trkpt>
      <trkpt lat="47.25592" lon="4.9716">
        <ele>343.229</ele>
        <time>2012-09-07T08:29:51Z</time>
      </trkpt>
      <trkpt lat="47.25575" lon="4.97155">
        <ele>343</ele>
        <time>2012-09-07T08:30:02Z</time>
      </trkpt>
      <trkpt lat="47.2556" lon="4.97145">
        <ele>343.864</ele>
        <time>2012-09-07T08:30:13Z</time>
      </trkpt>
      <trkpt lat="47.25547" lon="4.97138">
        <ele>344.904</ele>
        <time>2012-09-07T08:30:24Z</time>
      </trkpt>
      <trkpt lat="47.25532" lon="4.97132">
        <ele>346.503</ele>
        <time>2012-09-07T08:30:35Z</time>
      </trkpt>
      <trkpt lat="47.2552" lon="4.97117">
        <ele>345.548</ele>
        <time>2012-09-07T08:30:46Z</time>
      </trkpt>
      <trkpt lat="47.2551" lon="4.97098">
        <ele>345.324</ele>
        <time>2012-09-07T08:30:57Z</time>
      </trkpt>
      <trkpt lat="47.25505" lon="4.97075">
        <ele>341.871</ele>
        <time>2012-09-07T08:31:08Z</time>
      </trkpt>
      <trkpt lat="47.255" lon="4.97052">
        <ele>340.942</ele>
        <time>2012-09-07T08:31:19Z</time>
      </trkpt>
      <trkpt lat="47.25497" lon="4.97025">
        <ele>340</ele>
        <time>2012-09-07T08:31:30Z</time>
      </trkpt>
      <trkpt lat="47.25488" lon="4.97002">
        <ele>337.534</ele>
        <time>2012-09-07T08:31:41Z</time>
      </trkpt>
      <trkpt lat="47.25483" lon="4.96982">
        <ele>337.979</ele>
        <time>2012-09-07T08:31:52Z</time>
      </trkpt>
      <trkpt lat="47.25475" lon="4.96962">
        <ele>338.203</ele>
        <time>2012-09-07T08:32:03Z</time>
      </trkpt>
      <trkpt lat="47.25467" lon="4.96947">
        <ele>338.429</ele>
        <time>2012-09-07T08:32:14Z</time>
      </trkpt>
      <trkpt lat="47.25457" lon="4.9693">
        <ele>338.363</ele>
        <time>2012-09-07T08:32:25Z</time>
      </trkpt>
      <trkpt lat="47.25447" lon="4.96913">
        <ele>338.708</ele>
        <time>2012-09-07T08:32:36Z</time>
      </trkpt>
      <trkpt lat="47.25437" lon="4.96897">
        <ele>338.336</ele>
        <time>2012-09-07T08:32:47Z</time>
      </trkpt>
      <trkpt lat="47.25427" lon="4.96878">
        <ele>336.191</ele>
        <time>2012-09-07T08:32:58Z</time>
      </trkpt>
      <trkpt lat="47.25418" lon="4.9686">
        <ele>335.406</ele>
        <time>2012-09-07T08:33:09Z</time>
      </trkpt>
      <trkpt lat="47.25412" lon="4.96843">
        <ele>335.556</ele>
        <time>2012-09-07T08:33:20Z</time>
      </trkpt>
      <trkpt lat="47.25405" lon="4.96822">
        <ele>335.002</ele>
        <time>2012-09-07T08:33:31Z</time>
      </trkpt>
      <trkpt lat="47.25397" lon="4.96802">
        <ele>335.156</ele>
        <time>2012-09-07T08:33:42Z</time>
      </trkpt>
      <trkpt lat="47.25392" lon="4.9678">
        <ele>335.972</ele>
        <time>2012-09-07T08:33:53Z</time>
      </trkpt>
      <trkpt lat="47.25385" lon="4.9676">
        <ele>336.4</ele>
        <time>2012-09-07T08:34:04Z</time>
      </trkpt>
      <trkpt lat="47.2538" lon="4.96743">
        <ele>336.22</ele>
        <time>2012-09-07T08:34:15Z</time>
      </trkpt>
      <trkpt lat="47.25375" lon="4.96722">
        <ele>335.818</ele>
        <time>2012-09-07T08:34:26Z</time>
      </trkpt>
      <trkpt lat="47.25372" lon="4.9671">
        <ele>336.39</ele>
        <time>2012-09-07T08:34:37Z</time>
      </trkpt>
      <trkpt lat="47.25368" lon="4.967">
        <ele>336.883</ele>
        <time>2012-09-07T08:34:48Z</time>
      </trkpt>
      <trkpt lat="47.25367" lon="4.96692">
        <ele>337.227</ele>
        <time>2012-09-07T08:34:59Z</time>
      </trkpt>
      <trkpt lat="47.25363" lon="4.96678">
        <ele>338.879</ele>
        <time>2012-09-07T08:35:10Z</time>
      </trkpt>
      <trkpt lat="47.25358" lon="4.96663">
        <ele>340.72</ele>
        <time>2012-09-07T08:35:21Z</time>
      </trkpt>
      <trkpt lat="47.25355" lon="4.96643">
        <ele>342.468</ele>
        <time>2012-09-07T08:35:32Z</time>
      </trkpt>
      <trkpt lat="47.25352" lon="4.96628">
        <ele>341.166</ele>
        <time>2012-09-07T08:35:43Z</time>
      </trkpt>
      <trkpt lat="47.25348" lon="4.96618">
        <ele>341.476</ele>
        <time>2012-09-07T08:35:54Z</time>
      </trkpt>
      <trkpt lat="47.25347" lon="4.96602">
        <ele>341.544</ele>
        <time>2012-09-07T08:36:05Z</time>
      </trkpt>
      <trkpt lat="47.25347" lon="4.9659">
        <ele>340</ele>
        <time>2012-09-07T08:36:16Z</time>
      </trkpt>
      <trkpt lat="47.25345" lon="4.96577">
        <ele>339.823</ele>
        <time>2012-09-07T08:36:27Z</time>
      </trkpt>
      <trkpt lat="47.25343" lon="4.96567">
        <ele>338.64</ele>
        <time>2012-09-07T08:36:38Z</time>
      </trkpt>
      <trkpt lat="47.25343" lon="4.96565">
        <ele>338.481</ele>
        <time>2012-09-07T08:36:49Z</time>
      </trkpt>
      <trkpt lat="47.25343" lon="4.96565">
        <ele>338.481</ele>
        <time>2012-09-07T08:37:00Z</time>
      </trkpt>
      <trkpt lat="47.25343" lon="4.96565">
        <ele>338.481</ele>
        <time>2012-09-07T08:37:11Z</time>
      </trkpt>
      <trkpt lat="47.25343" lon="4.96563">
        <ele>338.495</ele>
        <time>2012-09-07T08:37:22Z</time>
      </trkpt>
      <trkpt lat="47.25343" lon="4.96563">
        <ele>338.495</ele>
        <time>2012-09-07T08:37:33Z</time>
      </trkpt>
      <trkpt lat="47.25342" lon="4.96563">
        <ele>338.142</ele>
        <time>2012-09-07T08:37:44Z</time>
      </trkpt>
      <trkpt lat="47.25338" lon="4.96552">
        <ele>339.657</ele>
        <time>2012-09-07T08:37:55Z</time>
      </trkpt>
      <trkpt lat="47.25337" lon="4.96538">
        <ele>343.086</ele>
        <time>2012-09-07T08:38:06Z</time>
      </trkpt>
      <trkpt lat="47.2534" lon="4.96512">
        <ele>346.812</ele>
        <time>2012-09-07T08:38:17Z</time>
      </trkpt>
      <trkpt lat="47.25342" lon="4.96487">
        <ele>350.945</ele>
        <time>2012-09-07T08:38:28Z</time>
      </trkpt>
      <trkpt lat="47.25343" lon="4.96478">
        <ele>352.254</ele>
        <time>2012-09-07T08:38:39Z</time>
      </trkpt>
      <trkpt lat="47.25345" lon="4.96465">
        <ele>352.775</ele>
        <time>2012-09-07T08:38:50Z</time>
      </trkpt>
      <trkpt lat="47.25348" lon="4.96452">
        <ele>354.959</ele>
        <time>2012-09-07T08:39:01Z</time>
      </trkpt>
      <trkpt lat="47.25352" lon="4.96433">
        <ele>358.1</ele>
        <time>2012-09-07T08:39:12Z</time>
      </trkpt>
      <trkpt lat="47.25358" lon="4.96405">
        <ele>361.533</ele>
        <time>2012-09-07T08:39:23Z</time>
      </trkpt>
      <trkpt lat="47.25365" lon="4.96387">
        <ele>362.904</ele>
        <time>2012-09-07T08:39:34Z</time>
      </trkpt>
      <trkpt lat="47.25367" lon="4.96373">
        <ele>364.187</ele>
        <time>2012-09-07T08:39:45Z</time>
      </trkpt>
      <trkpt lat="47.25372" lon="4.96357">
        <ele>366.166</ele>
        <time>2012-09-07T08:39:56Z</time>
      </trkpt>
      <trkpt lat="47.25378" lon="4.9634">
        <ele>370.328</ele>
        <time>2012-09-07T08:40:07Z</time>
      </trkpt>
      <trkpt lat="47.25382" lon="4.96328">
        <ele>371.489</ele>
        <time>2012-09-07T08:40:18Z</time>
      </trkpt>
      <trkpt lat="47.25388" lon="4.96307">
        <ele>373.079</ele>
        <time>2012-09-07T08:40:29Z</time>
      </trkpt>
      <trkpt lat="47.254" lon="4.96275">
        <ele>374.98</ele>
        <time>2012-09-07T08:40:40Z</time>
      </trkpt>
      <trkpt lat="47.25408" lon="4.96262">
        <ele>377.192</ele>
        <time>2012-09-07T08:40:51Z</time>
      </trkpt>
      <trkpt lat="47.25417" lon="4.9624">
        <ele>379.501</ele>
        <time>2012-09-07T08:41:02Z</time>
      </trkpt>
      <trkpt lat="47.2542" lon="4.96232">
        <ele>380.679</ele>
        <time>2012-09-07T08:41:13Z</time>
      </trkpt>
      <trkpt lat="47.25425" lon="4.96218">
        <ele>381.043</ele>
        <time>2012-09-07T08:41:24Z</time>
      </trkpt>
      <trkpt lat="47.25433" lon="4.96197">
        <ele>382.145</ele>
        <time>2012-09-07T08:41:35Z</time>
      </trkpt>
      <trkpt lat="47.25442" lon="4.96178">
        <ele>383.386</ele>
        <time>2012-09-07T08:41:46Z</time>
      </trkpt>
      <trkpt lat="47.25445" lon="4.96168">
        <ele>386.462</ele>
        <time>2012-09-07T08:41:57Z</time>
      </trkpt>
      <trkpt lat="47.25448" lon="4.96163">
        <ele>387</ele>
        <time>2012-09-07T08:42:08Z</time>
      </trkpt>
      <trkpt lat="47.2545" lon="4.96157">
        <ele>388.135</ele>
        <time>2012-09-07T08:42:19Z</time>
      </trkpt>
      <trkpt lat="47.25453" lon="4.9615">
        <ele>391.653</ele>
        <time>2012-09-07T08:42:30Z</time>
      </trkpt>
      <trkpt lat="47.25457" lon="4.96138">
        <ele>392.682</ele>
        <time>2012-09-07T08:42:41Z</time>
      </trkpt>
      <trkpt lat="47.25462" lon="4.96122">
        <ele>394.468</ele>
        <time>2012-09-07T08:42:52Z</time>
      </trkpt>
      <trkpt lat="47.2547" lon="4.96098">
        <ele>397.806</ele>
        <time>2012-09-07T08:43:03Z</time>
      </trkpt>
      <trkpt lat="47.25475" lon="4.96078">
        <ele>399.583</ele>
        <time>2012-09-07T08:43:14Z</time>
      </trkpt>
      <trkpt lat="47.25478" lon="4.96057">
        <ele>403.02</ele>
        <time>2012-09-07T08:43:25Z</time>
      </trkpt>
      <trkpt lat="47.25487" lon="4.96033">
        <ele>407.127</ele>
        <time>2012-09-07T08:43:36Z</time>
      </trkpt>
      <trkpt lat="47.2549" lon="4.9601">
        <ele>409.263</ele>
        <time>2012-09-07T08:43:47Z</time>
      </trkpt>
      <trkpt lat="47.25492" lon="4.95998">
        <ele>411.937</ele>
        <time>2012-09-07T08:43:58Z</time>
      </trkpt>
      <trkpt lat="47.25495" lon="4.95985">
        <ele>413.157</ele>
        <time>2012-09-07T08:44:09Z</time>
      </trkpt>
      <trkpt lat="47.25498" lon="4.95973">
        <ele>413.602</ele>
        <time>2012-09-07T08:44:20Z</time>
      </trkpt>
      <trkpt lat="47.25502" lon="4.95945">
        <ele>414.211</ele>
        <time>2012-09-07T08:44:31Z</time>
      </trkpt>
      <trkpt lat="47.25505" lon="4.95932">
        <ele>417.179</ele>
        <time>2012-09-07T08:44:42Z</time>
      </trkpt>
      <trkpt lat="47.25508" lon="4.95915">
        <ele>418.108</ele>
        <time>2012-09-07T08:44:53Z</time>
      </trkpt>
      <trkpt lat="47.25512" lon="4.95883">
        <ele>420.294</ele>
        <time>2012-09-07T08:45:04Z</time>
      </trkpt>
      <trkpt lat="47.25513" lon="4.95865">
        <ele>421.897</ele>
        <time>2012-09-07T08:45:15Z</time>
      </trkpt>
      <trkpt lat="47.2552" lon="4.95843">
        <ele>421.627</ele>
        <time>2012-09-07T08:45:26Z</time>
      </trkpt>
      <trkpt lat="47.25532" lon="4.95823">
        <ele>422.134</ele>
        <time>2012-09-07T08:45:37Z</time>
      </trkpt>
      <trkpt lat="47.25547" lon="4.95795">
        <ele>420.446</ele>
        <time>2012-09-07T08:45:48Z</time>
      </trkpt>
      <trkpt lat="47.25558" lon="4.95783">
        <ele>424.067</ele>
        <time>2012-09-07T08:45:59Z</time>
      </trkpt>
      <trkpt lat="47.25572" lon="4.95768">
        <ele>427.26</ele>
        <time>2012-09-07T08:46:10Z</time>
      </trkpt>
      <trkpt lat="47.25577" lon="4.9576">
        <ele>426.701</ele>
        <time>2012-09-07T08:46:21Z</time>
      </trkpt>
      <trkpt lat="47.25577" lon="4.95758">
        <ele>426</ele>
        <time>2012-09-07T08:46:32Z</time>
      </trkpt>
      <trkpt lat="47.25577" lon="4.9575">
        <ele>427.472</ele>
        <time>2012-09-07T08:46:43Z</time>
      </trkpt>
      <trkpt lat="47.25577" lon="4.9575">
        <ele>427.472</ele>
        <time>2012-09-07T08:46:54Z</time>
      </trkpt>
      <trkpt lat="47.25577" lon="4.9575">
        <ele>427.472</ele>
        <time>2012-09-07T08:47:05Z</time>
      </trkpt>
      <trkpt lat="47.25578" lon="4.95742">
        <ele>426.815</ele>
        <time>2012-09-07T08:47:16Z</time>
      </trkpt>
      <trkpt lat="47.25582" lon="4.95737">
        <ele>426.851</ele>
        <time>2012-09-07T08:47:27Z</time>
      </trkpt>
      <trkpt lat="47.25585" lon="4.95733">
        <ele>428.341</ele>
        <time>2012-09-07T08:47:38Z</time>
      </trkpt>
      <trkpt lat="47.25587" lon="4.95727">
        <ele>430.138</ele>
        <time>2012-09-07T08:47:49Z</time>
      </trkpt>
      <trkpt lat="47.25587" lon="4.95727">
        <ele>429.674</ele>
        <time>2012-09-07T08:48:00Z</time>
      </trkpt>
      <trkpt lat="47.2559" lon="4.95722">
        <ele>430.142</ele>
        <time>2012-09-07T08:48:11Z</time>
      </trkpt>
      <trkpt lat="47.25593" lon="4.95717">
        <ele>430.914</ele>
        <time>2012-09-07T08:48:22Z</time>
      </trkpt>
      <trkpt lat="47.25595" lon="4.95717">
        <ele>432.122</ele>
        <time>2012-09-07T08:48:33Z</time>
      </trkpt>
      <trkpt lat="47.25597" lon="4.95717">
        <ele>431.533</ele>
        <time>2012-09-07T08:48:44Z</time>
      </trkpt>
      <trkpt lat="47.25598" lon="4.95717">
        <ele>433.612</ele>
        <time>2012-09-07T08:48:55Z</time>
      </trkpt>
      <trkpt lat="47.25598" lon="4.95717">
        <ele>434.201</ele>
        <time>2012-09-07T08:49:06Z</time>
      </trkpt>
      <trkpt lat="47.25602" lon="4.9572">
        <ele>436.223</ele>
        <time>2012-09-07T08:49:17Z</time>
      </trkpt>
      <trkpt lat="47.25603" lon="4.9572">
        <ele>437.905</ele>
        <time>2012-09-07T08:49:28Z</time>
      </trkpt>
      <trkpt lat="47.25607" lon="4.9572">
        <ele>436</ele>
        <time>2012-09-07T08:49:39Z</time>
      </trkpt>
      <trkpt lat="47.25608" lon="4.9572">
        <ele>436.803</ele>
        <time>2012-09-07T08:49:50Z</time>
      </trkpt>
      <trkpt lat="47.25613" lon="4.95722">
        <ele>438.864</ele>
        <time>2012-09-07T08:50:01Z</time>
      </trkpt>
      <trkpt lat="47.25617" lon="4.95725">
        <ele>440.314</ele>
        <time>2012-09-07T08:50:12Z</time>
      </trkpt>
      <trkpt lat="47.25618" lon="4.95728">
        <ele>440.788</ele>
        <time>2012-09-07T08:50:23Z</time>
      </trkpt>
      <trkpt lat="47.2562" lon="4.9573">
        <ele>441.627</ele>
        <time>2012-09-07T08:50:34Z</time>
      </trkpt>
      <trkpt lat="47.25622" lon="4.95733">
        <ele>442.798</ele>
        <time>2012-09-07T08:50:45Z</time>
      </trkpt>
      <trkpt lat="47.25625" lon="4.95737">
        <ele>445.317</ele>
        <time>2012-09-07T08:50:56Z</time>
      </trkpt>
      <trkpt lat="47.25627" lon="4.95738">
        <ele>445</ele>
        <time>2012-09-07T08:51:07Z</time>
      </trkpt>
      <trkpt lat="47.25628" lon="4.9574">
        <ele>445.252</ele>
        <time>2012-09-07T08:51:18Z</time>
      </trkpt>
      <trkpt lat="47.25628" lon="4.95742">
        <ele>446.222</ele>
        <time>2012-09-07T08:51:29Z</time>
      </trkpt>
      <trkpt lat="47.2563" lon="4.95745">
        <ele>447.225</ele>
        <time>2012-09-07T08:51:40Z</time>
      </trkpt>
      <trkpt lat="47.25635" lon="4.95748">
        <ele>448.95</ele>
        <time>2012-09-07T08:51:51Z</time>
      </trkpt>
      <trkpt lat="47.25638" lon="4.95753">
        <ele>450</ele>
        <time>2012-09-07T08:52:02Z</time>
      </trkpt>
      <trkpt lat="47.2564" lon="4.95758">
        <ele>453.096</ele>
        <time>2012-09-07T08:52:13Z</time>
      </trkpt>
      <trkpt lat="47.25645" lon="4.95767">
        <ele>452.169</ele>
        <time>2012-09-07T08:52:24Z</time>
      </trkpt>
      <trkpt lat="47.25647" lon="4.95772">
        <ele>453.215</ele>
        <time>2012-09-07T08:52:35Z</time>
      </trkpt>
      <trkpt lat="47.25648" lon="4.95777">
        <ele>452.042</ele>
        <time>2012-09-07T08:52:46Z</time>
      </trkpt>
      <trkpt lat="47.2565" lon="4.9578">
        <ele>451.312</ele>
        <time>2012-09-07T08:52:57Z</time>
      </trkpt>
      <trkpt lat="47.25652" lon="4.95783">
        <ele>450.35</ele>
        <time>2012-09-07T08:53:08Z</time>
      </trkpt>
      <trkpt lat="47.25655" lon="4.95788">
        <ele>449.221</ele>
        <time>2012-09-07T08:53:19Z</time>
      </trkpt>
      <trkpt lat="47.25655" lon="4.95788">
        <ele>449.221</ele>
        <time>2012-09-07T08:53:30Z</time>
      </trkpt>
      <trkpt lat="47.25657" lon="4.9579">
        <ele>449.617</ele>
        <time>2012-09-07T08:53:41Z</time>
      </trkpt>
      <trkpt lat="47.25657" lon="4.9579">
        <ele>449.617</ele>
        <time>2012-09-07T08:53:52Z</time>
      </trkpt>
      <trkpt lat="47.25657" lon="4.9579">
        <ele>449.281</ele>
        <time>2012-09-07T08:54:03Z</time>
      </trkpt>
      <trkpt lat="47.25658" lon="4.95793">
        <ele>448.755</ele>
        <time>2012-09-07T08:54:14Z</time>
      </trkpt>
      <trkpt lat="47.25658" lon="4.95793">
        <ele>448.755</ele>
        <time>2012-09-07T08:54:25Z</time>
      </trkpt>
      <trkpt lat="47.25658" lon="4.95793">
        <ele>448.755</ele>
        <time>2012-09-07T08:54:36Z</time>
      </trkpt>
      <trkpt lat="47.25658" lon="4.95795">
        <ele>447.798</ele>
        <time>2012-09-07T08:54:47Z</time>
      </trkpt>
      <trkpt lat="47.2566" lon="4.95797">
        <ele>448</ele>
        <time>2012-09-07T08:54:58Z</time>
      </trkpt>
      <trkpt lat="47.25667" lon="4.95798">
        <ele>448.488</ele>
        <time>2012-09-07T08:55:09Z</time>
      </trkpt>
      <trkpt lat="47.25677" lon="4.958">
        <ele>450.175</ele>
        <time>2012-09-07T08:55:20Z</time>
      </trkpt>
      <trkpt lat="47.2569" lon="4.95802">
        <ele>451.876</ele>
        <time>2012-09-07T08:55:31Z</time>
      </trkpt>
      <trkpt lat="47.25707" lon="4.95808">
        <ele>450.226</ele>
        <time>2012-09-07T08:55:42Z</time>
      </trkpt>
      <trkpt lat="47.2572" lon="4.95808">
        <ele>449.456</ele>
        <time>2012-09-07T08:55:53Z</time>
      </trkpt>
      <trkpt lat="47.25735" lon="4.95808">
        <ele>449.473</ele>
        <time>2012-09-07T08:56:04Z</time>
      </trkpt>
      <trkpt lat="47.25743" lon="4.9581">
        <ele>449.911</ele>
        <time>2012-09-07T08:56:15Z</time>
      </trkpt>
      <trkpt lat="47.25758" lon="4.95813">
        <ele>450.801</ele>
        <time>2012-09-07T08:56:26Z</time>
      </trkpt>
      <trkpt lat="47.25772" lon="4.95813">
        <ele>449.772</ele>
        <time>2012-09-07T08:56:37Z</time>
      </trkpt>
      <trkpt lat="47.25788" lon="4.9581">
        <ele>448.718</ele>
        <time>2012-09-07T08:56:48Z</time>
      </trkpt>
      <trkpt lat="47.25803" lon="4.95807">
        <ele>449.984</ele>
        <time>2012-09-07T08:56:59Z</time>
      </trkpt>
      <trkpt lat="47.25817" lon="4.95803">
        <ele>450.802</ele>
        <time>2012-09-07T08:57:10Z</time>
      </trkpt>
      <trkpt lat="47.25828" lon="4.95805">
        <ele>450.667</ele>
        <time>2012-09-07T08:57:21Z</time>
      </trkpt>
      <trkpt lat="47.25843" lon="4.95803">
        <ele>450.058</ele>
        <time>2012-09-07T08:57:32Z</time>
      </trkpt>
      <trkpt lat="47.25858" lon="4.958">
        <ele>450.329</ele>
        <time>2012-09-07T08:57:43Z</time>
      </trkpt>
      <trkpt lat="47.25872" lon="4.95798">
        <ele>452.085</ele>
        <time>2012-09-07T08:57:54Z</time>
      </trkpt>
      <trkpt lat="47.25883" lon="4.95797">
        <ele>454.696</ele>
        <time>2012-09-07T08:58:05Z</time>
      </trkpt>
      <trkpt lat="47.25892" lon="4.95793">
        <ele>457.72</ele>
        <time>2012-09-07T08:58:16Z</time>
      </trkpt>
      <trkpt lat="47.25898" lon="4.95795">
        <ele>458.999</ele>
        <time>2012-09-07T08:58:27Z</time>
      </trkpt>
      <trkpt lat="47.25908" lon="4.958">
        <ele>460.413</ele>
        <time>2012-09-07T08:58:38Z</time>
      </trkpt>
      <trkpt lat="47.2592" lon="4.95805">
        <ele>462.728</ele>
        <time>2012-09-07T08:58:49Z</time>
      </trkpt>
      <trkpt lat="47.2593" lon="4.95812">
        <ele>466.278</ele>
        <time>2012-09-07T08:59:00Z</time>
      </trkpt>
      <trkpt lat="47.2594" lon="4.95815">
        <ele>468.843</ele>
        <time>2012-09-07T08:59:11Z</time>
      </trkpt>
      <trkpt lat="47.25953" lon="4.9582">
        <ele>471.389</ele>
        <time>2012-09-07T08:59:22Z</time>
      </trkpt>
      <trkpt lat="47.25963" lon="4.95827">
        <ele>473.617</ele>
        <time>2012-09-07T08:59:33Z</time>
      </trkpt>
      <trkpt lat="47.25967" lon="4.95833">
        <ele>476.232</ele>
        <time>2012-09-07T08:59:44Z</time>
      </trkpt>
      <trkpt lat="47.25977" lon="4.95838">
        <ele>476.876</ele>
        <time>2012-09-07T08:59:55Z</time>
      </trkpt>
      <trkpt lat="47.2599" lon="4.95847">
        <ele>476.894</ele>
        <time>2012-09-07T09:00:06Z</time>
      </trkpt>
      <trkpt lat="47.26005" lon="4.95853">
        <ele>478.266</ele>
        <time>2012-09-07T09:00:17Z</time>
      </trkpt>
      <trkpt lat="47.26017" lon="4.9586">
        <ele>479.436</ele>
        <time>2012-09-07T09:00:28Z</time>
      </trkpt>
      <trkpt lat="47.26032" lon="4.95868">
        <ele>479.708</ele>
        <time>2012-09-07T09:00:39Z</time>
      </trkpt>
      <trkpt lat="47.26047" lon="4.95875">
        <ele>480.168</ele>
        <time>2012-09-07T09:00:50Z</time>
      </trkpt>
      <trkpt lat="47.26062" lon="4.9588">
        <ele>481.108</ele>
        <time>2012-09-07T09:01:01Z</time>
      </trkpt>
      <trkpt lat="47.26067" lon="4.95883">
        <ele>481.633</ele>
        <time>2012-09-07T09:01:12Z</time>
      </trkpt>
      <trkpt lat="47.26073" lon="4.95885">
        <ele>480</ele>
        <time>2012-09-07T09:01:23Z</time>
      </trkpt>
      <trkpt lat="47.2608" lon="4.95892">
        <ele>480.429</ele>
        <time>2012-09-07T09:01:34Z</time>
      </trkpt>
      <trkpt lat="47.26082" lon="4.959">
        <ele>479.699</ele>
        <time>2012-09-07T09:01:45Z</time>
      </trkpt>
      <trkpt lat="47.26087" lon="4.95915">
        <ele>479.97</ele>
        <time>2012-09-07T09:01:56Z</time>
      </trkpt>
      <trkpt lat="47.26087" lon="4.9593">
        <ele>478.974</ele>
        <time>2012-09-07T09:02:07Z</time>
      </trkpt>
      <trkpt lat="47.26085" lon="4.95952">
        <ele>478.249</ele>
        <time>2012-09-07T09:02:18Z</time>
      </trkpt>
      <trkpt lat="47.2609" lon="4.95975">
        <ele>477.537</ele>
        <time>2012-09-07T09:02:29Z</time>
      </trkpt>
      <trkpt lat="47.26093" lon="4.95995">
        <ele>477.653</ele>
        <time>2012-09-07T09:02:40Z</time>
      </trkpt>
      <trkpt lat="47.26098" lon="4.96015">
        <ele>476.493</ele>
        <time>2012-09-07T09:02:51Z</time>
      </trkpt>
      <trkpt lat="47.26102" lon="4.96025">
        <ele>476.594</ele>
        <time>2012-09-07T09:03:02Z</time>
      </trkpt>
      <trkpt lat="47.26105" lon="4.96038">
        <ele>474.386</ele>
        <time>2012-09-07T09:03:13Z</time>
      </trkpt>
      <trkpt lat="47.26105" lon="4.96045">
        <ele>473.056</ele>
        <time>2012-09-07T09:03:24Z</time>
      </trkpt>
      <trkpt lat="47.26108" lon="4.96058">
        <ele>470.471</ele>
        <time>2012-09-07T09:03:35Z</time>
      </trkpt>
      <trkpt lat="47.26113" lon="4.96073">
        <ele>470.267</ele>
        <time>2012-09-07T09:03:46Z</time>
      </trkpt>
      <trkpt lat="47.26113" lon="4.96083">
        <ele>470.127</ele>
        <time>2012-09-07T09:03:57Z</time>
      </trkpt>
      <trkpt lat="47.26117" lon="4.961">
        <ele>470.396</ele>
        <time>2012-09-07T09:04:08Z</time>
      </trkpt>
      <trkpt lat="47.26117" lon="4.96113">
        <ele>469.385</ele>
        <time>2012-09-07T09:04:19Z</time>
      </trkpt>
      <trkpt lat="47.26118" lon="4.9613">
        <ele>466.88</ele>
        <time>2012-09-07T09:04:30Z</time>
      </trkpt>
      <trkpt lat="47.2612" lon="4.96143">
        <ele>465.866</ele>
        <time>2012-09-07T09:04:41Z</time>
      </trkpt>
      <trkpt lat="47.2612" lon="4.96158">
        <ele>463.793</ele>
        <time>2012-09-07T09:04:52Z</time>
      </trkpt>
      <trkpt lat="47.26123" lon="4.96167">
        <ele>462.82</ele>
        <time>2012-09-07T09:05:03Z</time>
      </trkpt>
      <trkpt lat="47.26125" lon="4.96177">
        <ele>462.397</ele>
        <time>2012-09-07T09:05:14Z</time>
      </trkpt>
      <trkpt lat="47.26125" lon="4.96192">
        <ele>463.208</ele>
        <time>2012-09-07T09:05:25Z</time>
      </trkpt>
      <trkpt lat="47.2613" lon="4.96207">
        <ele>462.924</ele>
        <time>2012-09-07T09:05:36Z</time>
      </trkpt>
      <trkpt lat="47.26132" lon="4.96222">
        <ele>461.206</ele>
        <time>2012-09-07T09:05:47Z</time>
      </trkpt>
      <trkpt lat="47.26135" lon="4.96237">
        <ele>458.882</ele>
        <time>2012-09-07T09:05:58Z</time>
      </trkpt>
      <trkpt lat="47.2614" lon="4.96252">
        <ele>456</ele>
        <time>2012-09-07T09:06:09Z</time>
      </trkpt>
      <trkpt lat="47.2614" lon="4.96255">
        <ele>454.869</ele>
        <time>2012-09-07T09:06:20Z</time>
      </trkpt>
      <trkpt lat="47.2614" lon="4.96255">
        <ele>454.721</ele>
        <time>2012-09-07T09:06:31Z</time>
      </trkpt>
      <trkpt lat="47.26142" lon="4.96257">
        <ele>454.35</ele>
        <time>2012-09-07T09:06:42Z</time>
      </trkpt>
      <trkpt lat="47.26142" lon="4.96258">
        <ele>453.389</ele>
        <time>2012-09-07T09:06:53Z</time>
      </trkpt>
      <trkpt lat="47.26142" lon="4.96262">
        <ele>451.53</ele>
        <time>2012-09-07T09:07:04Z</time>
      </trkpt>
      <trkpt lat="47.26147" lon="4.9627">
        <ele>448.635</ele>
        <time>2012-09-07T09:07:15Z</time>
      </trkpt>
      <trkpt lat="47.26148" lon="4.96275">
        <ele>446.992</ele>
        <time>2012-09-07T09:07:26Z</time>
      </trkpt>
      <trkpt lat="47.2615" lon="4.9628">
        <ele>444.849</ele>
        <time>2012-09-07T09:07:37Z</time>
      </trkpt>
      <trkpt lat="47.26155" lon="4.96288">
        <ele>441.882</ele>
        <time>2012-09-07T09:07:48Z</time>
      </trkpt>
      <trkpt lat="47.26157" lon="4.96293">
        <ele>440.891</ele>
        <time>2012-09-07T09:07:59Z</time>
      </trkpt>
      <trkpt lat="47.26157" lon="4.96297">
        <ele>440.371</ele>
        <time>2012-09-07T09:08:10Z</time>
      </trkpt>
      <trkpt lat="47.26158" lon="4.96302">
        <ele>439.174</ele>
        <time>2012-09-07T09:08:21Z</time>
      </trkpt>
      <trkpt lat="47.26163" lon="4.9631">
        <ele>440.535</ele>
        <time>2012-09-07T09:08:32Z</time>
      </trkpt>
      <trkpt lat="47.26167" lon="4.9632">
        <ele>440.952</ele>
        <time>2012-09-07T09:08:43Z</time>
      </trkpt>
      <trkpt lat="47.26172" lon="4.96333">
        <ele>441.342</ele>
        <time>2012-09-07T09:08:54Z</time>
      </trkpt>
      <trkpt lat="47.26173" lon="4.96347">
        <ele>439.697</ele>
        <time>2012-09-07T09:09:05Z</time>
      </trkpt>
      <trkpt lat="47.26175" lon="4.96365">
        <ele>437.376</ele>
        <time>2012-09-07T09:09:16Z</time>
      </trkpt>
      <trkpt lat="47.26183" lon="4.96392">
        <ele>436.028</ele>
        <time>2012-09-07T09:09:27Z</time>
      </trkpt>
      <trkpt lat="47.26193" lon="4.96425">
        <ele>432.668</ele>
        <time>2012-09-07T09:09:38Z</time>
      </trkpt>
      <trkpt lat="47.26198" lon="4.96442">
        <ele>428.169</ele>
        <time>2012-09-07T09:09:49Z</time>
      </trkpt>
      <trkpt lat="47.262" lon="4.96447">
        <ele>426.473</ele>
        <time>2012-09-07T09:10:00Z</time>
      </trkpt>
      <trkpt lat="47.262" lon="4.96448">
        <ele>425.406</ele>
        <time>2012-09-07T09:10:11Z</time>
      </trkpt>
      <trkpt lat="47.262" lon="4.9645">
        <ele>425.28</ele>
        <time>2012-09-07T09:10:22Z</time>
      </trkpt>
      <trkpt lat="47.262" lon="4.9645">
        <ele>424.955</ele>
        <time>2012-09-07T09:10:33Z</time>
      </trkpt>
      <trkpt lat="47.26202" lon="4.96452">
        <ele>424.873</ele>
        <time>2012-09-07T09:10:44Z</time>
      </trkpt>
      <trkpt lat="47.26205" lon="4.96452">
        <ele>424.516</ele>
        <time>2012-09-07T09:10:55Z</time>
      </trkpt>
      <trkpt lat="47.26205" lon="4.96453">
        <ele>423.521</ele>
        <time>2012-09-07T09:11:06Z</time>
      </trkpt>
      <trkpt lat="47.26205" lon="4.96453">
        <ele>423.521</ele>
        <time>2012-09-07T09:11:17Z</time>
      </trkpt>
      <trkpt lat="47.26207" lon="4.96455">
        <ele>423.342</ele>
        <time>2012-09-07T09:11:28Z</time>
      </trkpt>
      <trkpt lat="47.26208" lon="4.96455">
        <ele>423.013</ele>
        <time>2012-09-07T09:11:39Z</time>
      </trkpt>
      <trkpt lat="47.26208" lon="4.96457">
        <ele>423.232</ele>
        <time>2012-09-07T09:11:50Z</time>
      </trkpt>
      <trkpt lat="47.2621" lon="4.9646">
        <ele>420.48</ele>
        <time>2012-09-07T09:12:01Z</time>
      </trkpt>
      <trkpt lat="47.26215" lon="4.96462">
        <ele>419.398</ele>
        <time>2012-09-07T09:12:12Z</time>
      </trkpt>
      <trkpt lat="47.26227" lon="4.96462">
        <ele>419.364</ele>
        <time>2012-09-07T09:12:23Z</time>
      </trkpt>
      <trkpt lat="47.26252" lon="4.96463">
        <ele>420.68</ele>
        <time>2012-09-07T09:12:34Z</time>
      </trkpt>
      <trkpt lat="47.26258" lon="4.96455">
        <ele>420.692</ele>
        <time>2012-09-07T09:12:45Z</time>
      </trkpt>
      <trkpt lat="47.2627" lon="4.96448">
        <ele>419.809</ele>
        <time>2012-09-07T09:12:56Z</time>
      </trkpt>
      <trkpt lat="47.26283" lon="4.96438">
        <ele>417.692</ele>
        <time>2012-09-07T09:13:07Z</time>
      </trkpt>
      <trkpt lat="47.26293" lon="4.96433">
        <ele>417</ele>
        <time>2012-09-07T09:13:18Z</time>
      </trkpt>
      <trkpt lat="47.26303" lon="4.9642">
        <ele>413.666</ele>
        <time>2012-09-07T09:13:29Z</time>
      </trkpt>
      <trkpt lat="47.26308" lon="4.96413">
        <ele>413.244</ele>
        <time>2012-09-07T09:13:40Z</time>
      </trkpt>
      <trkpt lat="47.26317" lon="4.96405">
        <ele>411.549</ele>
        <time>2012-09-07T09:13:51Z</time>
      </trkpt>
      <trkpt lat="47.26327" lon="4.96392">
        <ele>411.21</ele>
        <time>2012-09-07T09:14:02Z</time>
      </trkpt>
      <trkpt lat="47.26335" lon="4.96383">
        <ele>410.927</ele>
        <time>2012-09-07T09:14:13Z</time>
      </trkpt>
      <trkpt lat="47.2635" lon="4.96375">
        <ele>412.04</ele>
        <time>2012-09-07T09:14:24Z</time>
      </trkpt>
      <trkpt lat="47.26358" lon="4.96358">
        <ele>411.648</ele>
        <time>2012-09-07T09:14:35Z</time>
      </trkpt>
      <trkpt lat="47.26367" lon="4.96348">
        <ele>411.77</ele>
        <time>2012-09-07T09:14:46Z</time>
      </trkpt>
      <trkpt lat="47.26372" lon="4.96338">
        <ele>415.152</ele>
        <time>2012-09-07T09:14:57Z</time>
      </trkpt>
      <trkpt lat="47.26383" lon="4.96328">
        <ele>416.536</ele>
        <time>2012-09-07T09:15:08Z</time>
      </trkpt>
      <trkpt lat="47.26392" lon="4.96318">
        <ele>419.655</ele>
        <time>2012-09-07T09:15:19Z</time>
      </trkpt>
      <trkpt lat="47.26397" lon="4.9631">
        <ele>421.42</ele>
        <time>2012-09-07T09:15:30Z</time>
      </trkpt>
      <trkpt lat="47.26402" lon="4.96302">
        <ele>423.255</ele>
        <time>2012-09-07T09:15:41Z</time>
      </trkpt>
      <trkpt lat="47.26407" lon="4.96292">
        <ele>423.975</ele>
        <time>2012-09-07T09:15:52Z</time>
      </trkpt>
      <trkpt lat="47.26413" lon="4.96282">
        <ele>424.247</ele>
        <time>2012-09-07T09:16:03Z</time>
      </trkpt>
      <trkpt lat="47.26415" lon="4.96273">
        <ele>427.517</ele>
        <time>2012-09-07T09:16:14Z</time>
      </trkpt>
      <trkpt lat="47.26415" lon="4.96262">
        <ele>428.586</ele>
        <time>2012-09-07T09:16:25Z</time>
      </trkpt>
      <trkpt lat="47.26418" lon="4.96255">
        <ele>430.289</ele>
        <time>2012-09-07T09:16:36Z</time>
      </trkpt>
      <trkpt lat="47.26418" lon="4.96247">
        <ele>430</ele>
        <time>2012-09-07T09:16:47Z</time>
      </trkpt>
      <trkpt lat="47.26425" lon="4.9624">
        <ele>435.015</ele>
        <time>2012-09-07T09:16:58Z</time>
      </trkpt>
      <trkpt lat="47.26427" lon="4.96235">
        <ele>430</ele>
        <time>2012-09-07T09:17:09Z</time>
      </trkpt>
      <trkpt lat="47.26427" lon="4.96222">
        <ele>435.097</ele>
        <time>2012-09-07T09:17:20Z</time>
      </trkpt>
      <trkpt lat="47.2643" lon="4.96217">
        <ele>436.101</ele>
        <time>2012-09-07T09:17:31Z</time>
      </trkpt>
      <trkpt lat="47.26435" lon="4.96207">
        <ele>436.497</ele>
        <time>2012-09-07T09:17:42Z</time>
      </trkpt>
      <trkpt lat="47.26443" lon="4.962">
        <ele>439.159</ele>
        <time>2012-09-07T09:17:53Z</time>
      </trkpt>
      <trkpt lat="47.26445" lon="4.96192">
        <ele>442.379</ele>
        <time>2012-09-07T09:18:04Z</time>
      </trkpt>
      <trkpt lat="47.26443" lon="4.9618">
        <ele>446.619</ele>
        <time>2012-09-07T09:18:15Z</time>
      </trkpt>
      <trkpt lat="47.2644" lon="4.9617">
        <ele>450.711</ele>
        <time>2012-09-07T09:18:26Z</time>
      </trkpt>
      <trkpt lat="47.2644" lon="4.9616">
        <ele>451.206</ele>
        <time>2012-09-07T09:18:37Z</time>
      </trkpt>
      <trkpt lat="47.26438" lon="4.9615">
        <ele>453.228</ele>
        <time>2012-09-07T09:18:48Z</time>
      </trkpt>
      <trkpt lat="47.26438" lon="4.96135">
        <ele>454.112</ele>
        <time>2012-09-07T09:18:59Z</time>
      </trkpt>
      <trkpt lat="47.26437" lon="4.96125">
        <ele>453.732</ele>
        <time>2012-09-07T09:19:10Z</time>
      </trkpt>
      <trkpt lat="47.26437" lon="4.96115">
        <ele>456.899</ele>
        <time>2012-09-07T09:19:21Z</time>
      </trkpt>
      <trkpt lat="47.26435" lon="4.96108">
        <ele>458.231</ele>
        <time>2012-09-07T09:19:32Z</time>
      </trkpt>
      <trkpt lat="47.26432" lon="4.96103">
        <ele>458.296</ele>
        <time>2012-09-07T09:19:43Z</time>
      </trkpt>
      <trkpt lat="47.2643" lon="4.96095">
        <ele>458.253</ele>
        <time>2012-09-07T09:19:54Z</time>
      </trkpt>
      <trkpt lat="47.26427" lon="4.96082">
        <ele>458.99</ele>
        <time>2012-09-07T09:20:05Z</time>
      </trkpt>
      <trkpt lat="47.26425" lon="4.9607">
        <ele>458.764</ele>
        <time>2012-09-07T09:20:16Z</time>
      </trkpt>
      <trkpt lat="47.26423" lon="4.96053">
        <ele>461.362</ele>
        <time>2012-09-07T09:20:27Z</time>
      </trkpt>
      <trkpt lat="47.26423" lon="4.96042">
        <ele>461.574</ele>
        <time>2012-09-07T09:20:38Z</time>
      </trkpt>
      <trkpt lat="47.26423" lon="4.96032">
        <ele>461.073</ele>
        <time>2012-09-07T09:20:49Z</time>
      </trkpt>
      <trkpt lat="47.26423" lon="4.96032">
        <ele>461.073</ele>
        <time>2012-09-07T09:21:00Z</time>
      </trkpt>
      <trkpt lat="47.26423" lon="4.96032">
        <ele>461.073</ele>
        <time>2012-09-07T09:21:11Z</time>
      </trkpt>
      <trkpt lat="47.26423" lon="4.96032">
        <ele>461.073</ele>
        <time>2012-09-07T09:21:22Z</time>
      </trkpt>
      <trkpt lat="47.26423" lon="4.96032">
        <ele>461</ele>
        <time>2012-09-07T09:21:33Z</time>
      </trkpt>
      <trkpt lat="47.26423" lon="4.96032">
        <ele>461.073</ele>
        <time>2012-09-07T09:21:44Z</time>
      </trkpt>
      <trkpt lat="47.26423" lon="4.96032">
        <ele>461.073</ele>
        <time>2012-09-07T09:21:55Z</time>
      </trkpt>
      <trkpt lat="47.26423" lon="4.96032">
        <ele>461.073</ele>
        <time>2012-09-07T09:22:06Z</time>
      </trkpt>
      <trkpt lat="47.26423" lon="4.96032">
        <ele>461.073</ele>
        <time>2012-09-07T09:22:17Z</time>
      </trkpt>
      <trkpt lat="47.26423" lon="4.96032">
        <ele>461.073</ele>
        <time>2012-09-07T09:22:28Z</time>
      </trkpt>
      <trkpt lat="47.26423" lon="4.96032">
        <ele>461.073</ele>
        <time>2012-09-07T09:22:39Z</time>
      </trkpt>
      <trkpt lat="47.26423" lon="4.96032">
        <ele>461.073</ele>
        <time>2012-09-07T09:22:50Z</time>
      </trkpt>
      <trkpt lat="47.26423" lon="4.96032">
        <ele>461.073</ele>
        <time>2012-09-07T09:23:01Z</time>
      </trkpt>
      <trkpt lat="47.26423" lon="4.96032">
        <ele>461.073</ele>
        <time>2012-09-07T09:23:12Z</time>
      </trkpt>
      <trkpt lat="47.26423" lon="4.96032">
        <ele>461.073</ele>
        <time>2012-09-07T09:23:23Z</time>
      </trkpt>
      <trkpt lat="47.26423" lon="4.96032">
        <ele>461.073</ele>
        <time>2012-09-07T09:23:34Z</time>
      </trkpt>
      <trkpt lat="47.26423" lon="4.96032">
        <ele>461.073</ele>
        <time>2012-09-07T09:23:45Z</time>
      </trkpt>
      <trkpt lat="47.26423" lon="4.96032">
        <ele>461.073</ele>
        <time>2012-09-07T09:23:56Z</time>
      </trkpt>
      <trkpt lat="47.26423" lon="4.96032">
        <ele>461.073</ele>
        <time>2012-09-07T09:24:07Z</time>
      </trkpt>
      <trkpt lat="47.26423" lon="4.96032">
        <ele>461.055</ele>
        <time>2012-09-07T09:24:18Z</time>
      </trkpt>
      <trkpt lat="47.26423" lon="4.96025">
        <ele>460.944</ele>
        <time>2012-09-07T09:24:29Z</time>
      </trkpt>
      <trkpt lat="47.26425" lon="4.96027">
        <ele>460.933</ele>
        <time>2012-09-07T09:24:40Z</time>
      </trkpt>
      <trkpt lat="47.26425" lon="4.96032">
        <ele>461.722</ele>
        <time>2012-09-07T09:24:51Z</time>
      </trkpt>
      <trkpt lat="47.26428" lon="4.96042">
        <ele>462.381</ele>
        <time>2012-09-07T09:25:02Z</time>
      </trkpt>
      <trkpt lat="47.26432" lon="4.96055">
        <ele>463.429</ele>
        <time>2012-09-07T09:25:13Z</time>
      </trkpt>
      <trkpt lat="47.26433" lon="4.96072">
        <ele>464.147</ele>
        <time>2012-09-07T09:25:24Z</time>
      </trkpt>
      <trkpt lat="47.26442" lon="4.96087">
        <ele>462.751</ele>
        <time>2012-09-07T09:25:35Z</time>
      </trkpt>
      <trkpt lat="47.26448" lon="4.961">
        <ele>463.428</ele>
        <time>2012-09-07T09:25:46Z</time>
      </trkpt>
      <trkpt lat="47.26448" lon="4.96118">
        <ele>466.358</ele>
        <time>2012-09-07T09:25:57Z</time>
      </trkpt>
      <trkpt lat="47.2645" lon="4.96138">
        <ele>469.382</ele>
        <time>2012-09-07T09:26:08Z</time>
      </trkpt>
      <trkpt lat="47.26452" lon="4.96155">
        <ele>472.496</ele>
        <time>2012-09-07T09:26:19Z</time>
      </trkpt>
      <trkpt lat="47.26452" lon="4.96172">
        <ele>474.634</ele>
        <time>2012-09-07T09:26:30Z</time>
      </trkpt>
      <trkpt lat="47.2645" lon="4.96187">
        <ele>475.118</ele>
        <time>2012-09-07T09:26:41Z</time>
      </trkpt>
      <trkpt lat="47.26448" lon="4.96207">
        <ele>474.097</ele>
        <time>2012-09-07T09:26:52Z</time>
      </trkpt>
      <trkpt lat="47.2645" lon="4.9623">
        <ele>472.454</ele>
        <time>2012-09-07T09:27:03Z</time>
      </trkpt>
      <trkpt lat="47.26447" lon="4.9625">
        <ele>474.26</ele>
        <time>2012-09-07T09:27:14Z</time>
      </trkpt>
      <trkpt lat="47.26447" lon="4.96272">
        <ele>470.064</ele>
        <time>2012-09-07T09:27:25Z</time>
      </trkpt>
      <trkpt lat="47.26443" lon="4.96293">
        <ele>469.45</ele>
        <time>2012-09-07T09:27:36Z</time>
      </trkpt>
      <trkpt lat="47.26452" lon="4.9631">
        <ele>465.562</ele>
        <time>2012-09-07T09:27:47Z</time>
      </trkpt>
      <trkpt lat="47.26467" lon="4.96317">
        <ele>462.08</ele>
        <time>2012-09-07T09:27:58Z</time>
      </trkpt>
      <trkpt lat="47.26477" lon="4.96318">
        <ele>459.933</ele>
        <time>2012-09-07T09:28:09Z</time>
      </trkpt>
      <trkpt lat="47.2649" lon="4.96328">
        <ele>457.079</ele>
        <time>2012-09-07T09:28:20Z</time>
      </trkpt>
      <trkpt lat="47.26505" lon="4.96337">
        <ele>454.128</ele>
        <time>2012-09-07T09:28:31Z</time>
      </trkpt>
      <trkpt lat="47.2652" lon="4.96345">
        <ele>453.121</ele>
        <time>2012-09-07T09:28:42Z</time>
      </trkpt>
      <trkpt lat="47.26533" lon="4.96355">
        <ele>451.906</ele>
        <time>2012-09-07T09:28:53Z</time>
      </trkpt>
      <trkpt lat="47.26547" lon="4.96363">
        <ele>450.579</ele>
        <time>2012-09-07T09:29:04Z</time>
      </trkpt>
      <trkpt lat="47.2656" lon="4.96373">
        <ele>451.095</ele>
        <time>2012-09-07T09:29:15Z</time>
      </trkpt>
      <trkpt lat="47.26572" lon="4.96382">
        <ele>451.188</ele>
        <time>2012-09-07T09:29:26Z</time>
      </trkpt>
      <trkpt lat="47.26573" lon="4.96392">
        <ele>452.236</ele>
        <time>2012-09-07T09:29:37Z</time>
      </trkpt>
      <trkpt lat="47.26583" lon="4.96405">
        <ele>452.493</ele>
        <time>2012-09-07T09:29:48Z</time>
      </trkpt>
      <trkpt lat="47.26598" lon="4.96418">
        <ele>449.238</ele>
        <time>2012-09-07T09:29:59Z</time>
      </trkpt>
      <trkpt lat="47.2661" lon="4.96423">
        <ele>450.074</ele>
        <time>2012-09-07T09:30:10Z</time>
      </trkpt>
      <trkpt lat="47.26623" lon="4.9642">
        <ele>448.177</ele>
        <time>2012-09-07T09:30:21Z</time>
      </trkpt>
      <trkpt lat="47.26635" lon="4.96417">
        <ele>447.476</ele>
        <time>2012-09-07T09:30:32Z</time>
      </trkpt>
      <trkpt lat="47.26648" lon="4.96423">
        <ele>446.93</ele>
        <time>2012-09-07T09:30:43Z</time>
      </trkpt>
      <trkpt lat="47.26662" lon="4.96425">
        <ele>446.771</ele>
        <time>2012-09-07T09:30:54Z</time>
      </trkpt>
      <trkpt lat="47.26672" lon="4.96435">
        <ele>446.132</ele>
        <time>2012-09-07T09:31:05Z</time>
      </trkpt>
      <trkpt lat="47.26683" lon="4.96435">
        <ele>446</ele>
        <time>2012-09-07T09:31:16Z</time>
      </trkpt>
      <trkpt lat="47.26697" lon="4.96427">
        <ele>445.806</ele>
        <time>2012-09-07T09:31:27Z</time>
      </trkpt>
      <trkpt lat="47.26707" lon="4.9643">
        <ele>447.948</ele>
        <time>2012-09-07T09:31:38Z</time>
      </trkpt>
      <trkpt lat="47.26715" lon="4.96433">
        <ele>449.228</ele>
        <time>2012-09-07T09:31:49Z</time>
      </trkpt>
      <trkpt lat="47.26728" lon="4.96432">
        <ele>448.256</ele>
        <time>2012-09-07T09:32:00Z</time>
      </trkpt>
      <trkpt lat="47.2674" lon="4.96422">
        <ele>447.832</ele>
        <time>2012-09-07T09:32:11Z</time>
      </trkpt>
      <trkpt lat="47.26752" lon="4.96423">
        <ele>447.26</ele>
        <time>2012-09-07T09:32:22Z</time>
      </trkpt>
      <trkpt lat="47.26767" lon="4.96417">
        <ele>446.83</ele>
        <time>2012-09-07T09:32:33Z</time>
      </trkpt>
      <trkpt lat="47.26782" lon="4.96413">
        <ele>449.142</ele>
        <time>2012-09-07T09:32:44Z</time>
      </trkpt>
      <trkpt lat="47.26798" lon="4.96413">
        <ele>450.036</ele>
        <time>2012-09-07T09:32:55Z</time>
      </trkpt>
      <trkpt lat="47.26815" lon="4.96413">
        <ele>449.612</ele>
        <time>2012-09-07T09:33:06Z</time>
      </trkpt>
      <trkpt lat="47.26828" lon="4.96417">
        <ele>450.818</ele>
        <time>2012-09-07T09:33:17Z</time>
      </trkpt>
      <trkpt lat="47.2684" lon="4.96418">
        <ele>450</ele>
        <time>2012-09-07T09:33:28Z</time>
      </trkpt>
      <trkpt lat="47.26853" lon="4.96418">
        <ele>451.315</ele>
        <time>2012-09-07T09:33:39Z</time>
      </trkpt>
      <trkpt lat="47.26868" lon="4.96415">
        <ele>451.102</ele>
        <time>2012-09-07T09:33:50Z</time>
      </trkpt>
      <trkpt lat="47.26882" lon="4.96415">
        <ele>451</ele>
        <time>2012-09-07T09:34:01Z</time>
      </trkpt>
      <trkpt lat="47.26898" lon="4.96413">
        <ele>451.343</ele>
        <time>2012-09-07T09:34:12Z</time>
      </trkpt>
      <trkpt lat="47.26912" lon="4.96413">
        <ele>451</ele>
        <time>2012-09-07T09:34:23Z</time>
      </trkpt>
      <trkpt lat="47.26923" lon="4.96407">
        <ele>450</ele>
        <time>2012-09-07T09:34:34Z</time>
      </trkpt>
      <trkpt lat="47.26933" lon="4.964">
        <ele>450.951</ele>
        <time>2012-09-07T09:34:45Z</time>
      </trkpt>
      <trkpt lat="47.26945" lon="4.96392">
        <ele>450.807</ele>
        <time>2012-09-07T09:34:56Z</time>
      </trkpt>
      <trkpt lat="47.26953" lon="4.96383">
        <ele>450</ele>
        <time>2012-09-07T09:35:07Z</time>
      </trkpt>
      <trkpt lat="47.2697" lon="4.96385">
        <ele>453.843</ele>
        <time>2012-09-07T09:35:18Z</time>
      </trkpt>
      <trkpt lat="47.26982" lon="4.96382">
        <ele>450</ele>
        <time>2012-09-07T09:35:29Z</time>
      </trkpt>
      <trkpt lat="47.26995" lon="4.96377">
        <ele>454.898</ele>
        <time>2012-09-07T09:35:40Z</time>
      </trkpt>
      <trkpt lat="47.27003" lon="4.96373">
        <ele>456.314</ele>
        <time>2012-09-07T09:35:51Z</time>
      </trkpt>
      <trkpt lat="47.27018" lon="4.96367">
        <ele>456</ele>
        <time>2012-09-07T09:36:02Z</time>
      </trkpt>
      <trkpt lat="47.27035" lon="4.96365">
        <ele>457.386</ele>
        <time>2012-09-07T09:36:13Z</time>
      </trkpt>
      <trkpt lat="47.27047" lon="4.96362">
        <ele>457</ele>
        <time>2012-09-07T09:36:24Z</time>
      </trkpt>
      <trkpt lat="47.2706" lon="4.9636">
        <ele>456.892</ele>
        <time>2012-09-07T09:36:35Z</time>
      </trkpt>
      <trkpt lat="47.27072" lon="4.96355">
        <ele>457.524</ele>
        <time>2012-09-07T09:36:46Z</time>
      </trkpt>
      <trkpt lat="47.27085" lon="4.96348">
        <ele>459.101</ele>
        <time>2012-09-07T09:36:57Z</time>
      </trkpt>
      <trkpt lat="47.27097" lon="4.96342">
        <ele>460</ele>
        <time>2012-09-07T09:37:08Z</time>
      </trkpt>
      <trkpt lat="47.27105" lon="4.96327">
        <ele>460</ele>
        <time>2012-09-07T09:37:19Z</time>
      </trkpt>
      <trkpt lat="47.27112" lon="4.96317">
        <ele>460</ele>
        <time>2012-09-07T09:37:30Z</time>
      </trkpt>
      <trkpt lat="47.2712" lon="4.96302">
        <ele>460</ele>
        <time>2012-09-07T09:37:41Z</time>
      </trkpt>
      <trkpt lat="47.27127" lon="4.96288">
        <ele>464.624</ele>
        <time>2012-09-07T09:37:52Z</time>
      </trkpt>
      <trkpt lat="47.27138" lon="4.96272">
        <ele>464</ele>
        <time>2012-09-07T09:38:03Z</time>
      </trkpt>
      <trkpt lat="47.2715" lon="4.96257">
        <ele>468.617</ele>
        <time>2012-09-07T09:38:14Z</time>
      </trkpt>
      <trkpt lat="47.27162" lon="4.9624">
        <ele>467.826</ele>
        <time>2012-09-07T09:38:25Z</time>
      </trkpt>
      <trkpt lat="47.2717" lon="4.9623">
        <ele>470.034</ele>
        <time>2012-09-07T09:38:36Z</time>
      </trkpt>
      <trkpt lat="47.2718" lon="4.9622">
        <ele>468</ele>
        <time>2012-09-07T09:38:47Z</time>
      </trkpt>
      <trkpt lat="47.2718" lon="4.96218">
        <ele>466.442</ele>
        <time>2012-09-07T09:38:58Z</time>
      </trkpt>
      <trkpt lat="47.27182" lon="4.96218">
        <ele>466</ele>
        <time>2012-09-07T09:39:09Z</time>
      </trkpt>
      <trkpt lat="47.27182" lon="4.96217">
        <ele>465.942</ele>
        <time>2012-09-07T09:39:20Z</time>
      </trkpt>
      <trkpt lat="47.27182" lon="4.96217">
        <ele>465</ele>
        <time>2012-09-07T09:39:31Z</time>
      </trkpt>
      <trkpt lat="47.27182" lon="4.9622">
        <ele>465</ele>
        <time>2012-09-07T09:39:42Z</time>
      </trkpt>
      <trkpt lat="47.27195" lon="4.96217">
        <ele>465</ele>
        <time>2012-09-07T09:39:53Z</time>
      </trkpt>
      <trkpt lat="47.2721" lon="4.9621">
        <ele>464.652</ele>
        <time>2012-09-07T09:40:04Z</time>
      </trkpt>
      <trkpt lat="47.27222" lon="4.96205">
        <ele>463.009</ele>
        <time>2012-09-07T09:40:15Z</time>
      </trkpt>
      <trkpt lat="47.27233" lon="4.96205">
        <ele>461.262</ele>
        <time>2012-09-07T09:40:26Z</time>
      </trkpt>
      <trkpt lat="47.27237" lon="4.96205">
        <ele>460.756</ele>
        <time>2012-09-07T09:40:37Z</time>
      </trkpt>
      <trkpt lat="47.2724" lon="4.96207">
        <ele>460</ele>
        <time>2012-09-07T09:40:48Z</time>
      </trkpt>
      <trkpt lat="47.27243" lon="4.9621">
        <ele>460</ele>
        <time>2012-09-07T09:40:59Z</time>
      </trkpt>
      <trkpt lat="47.27247" lon="4.96212">
        <ele>460</ele>
        <time>2012-09-07T09:41:10Z</time>
      </trkpt>
      <trkpt lat="47.27247" lon="4.96213">
        <ele>460</ele>
        <time>2012-09-07T09:41:21Z</time>
      </trkpt>
      <trkpt lat="47.27247" lon="4.96213">
        <ele>460</ele>
        <time>2012-09-07T09:41:32Z</time>
      </trkpt>
      <trkpt lat="47.27247" lon="4.96215">
        <ele>460</ele>
        <time>2012-09-07T09:41:43Z</time>
      </trkpt>
      <trkpt lat="47.27247" lon="4.96215">
        <ele>460</ele>
        <time>2012-09-07T09:41:54Z</time>
      </trkpt>
      <trkpt lat="47.27245" lon="4.96215">
        <ele>460.866</ele>
        <time>2012-09-07T09:42:05Z</time>
      </trkpt>
      <trkpt lat="47.27243" lon="4.96215">
        <ele>460.961</ele>
        <time>2012-09-07T09:42:16Z</time>
      </trkpt>
      <trkpt lat="47.27243" lon="4.96222">
        <ele>460</ele>
        <time>2012-09-07T09:42:27Z</time>
      </trkpt>
      <trkpt lat="47.27242" lon="4.96227">
        <ele>459.987</ele>
        <time>2012-09-07T09:42:38Z</time>
      </trkpt>
      <trkpt lat="47.27242" lon="4.96237">
        <ele>460</ele>
        <time>2012-09-07T09:42:49Z</time>
      </trkpt>
      <trkpt lat="47.27238" lon="4.96247">
        <ele>460</ele>
        <time>2012-09-07T09:43:00Z</time>
      </trkpt>
      <trkpt lat="47.27235" lon="4.96262">
        <ele>460</ele>
        <time>2012-09-07T09:43:11Z</time>
      </trkpt>
      <trkpt lat="47.2723" lon="4.96282">
        <ele>460</ele>
        <time>2012-09-07T09:43:22Z</time>
      </trkpt>
      <trkpt lat="47.27222" lon="4.96303">
        <ele>460</ele>
        <time>2012-09-07T09:43:33Z</time>
      </trkpt>
      <trkpt lat="47.27213" lon="4.96325">
        <ele>460</ele>
        <time>2012-09-07T09:43:44Z</time>
      </trkpt>
      <trkpt lat="47.27203" lon="4.96347">
        <ele>460</ele>
        <time>2012-09-07T09:43:55Z</time>
      </trkpt>
      <trkpt lat="47.272" lon="4.96363">
        <ele>460</ele>
        <time>2012-09-07T09:44:06Z</time>
      </trkpt>
      <trkpt lat="47.27198" lon="4.9638">
        <ele>460</ele>
        <time>2012-09-07T09:44:17Z</time>
      </trkpt>
      <trkpt lat="47.27192" lon="4.9639">
        <ele>460</ele>
        <time>2012-09-07T09:44:28Z</time>
      </trkpt>
      <trkpt lat="47.27187" lon="4.96407">
        <ele>460</ele>
        <time>2012-09-07T09:44:39Z</time>
      </trkpt>
      <trkpt lat="47.2718" lon="4.96422">
        <ele>454.63</ele>
        <time>2012-09-07T09:44:50Z</time>
      </trkpt>
      <trkpt lat="47.27173" lon="4.96433">
        <ele>440</ele>
        <time>2012-09-07T09:45:01Z</time>
      </trkpt>
      <trkpt lat="47.2717" lon="4.96455">
        <ele>440</ele>
        <time>2012-09-07T09:45:12Z</time>
      </trkpt>
      <trkpt lat="47.27165" lon="4.96472">
        <ele>440</ele>
        <time>2012-09-07T09:45:23Z</time>
      </trkpt>
      <trkpt lat="47.27158" lon="4.96487">
        <ele>440</ele>
        <time>2012-09-07T09:45:34Z</time>
      </trkpt>
      <trkpt lat="47.27155" lon="4.96493">
        <ele>440</ele>
        <time>2012-09-07T09:45:45Z</time>
      </trkpt>
      <trkpt lat="47.27145" lon="4.96505">
        <ele>440</ele>
        <time>2012-09-07T09:45:56Z</time>
      </trkpt>
      <trkpt lat="47.27138" lon="4.9651">
        <ele>440</ele>
        <time>2012-09-07T09:46:07Z</time>
      </trkpt>
      <trkpt lat="47.27128" lon="4.96518">
        <ele>440</ele>
        <time>2012-09-07T09:46:18Z</time>
      </trkpt>
      <trkpt lat="47.27118" lon="4.96528">
        <ele>440</ele>
        <time>2012-09-07T09:46:29Z</time>
      </trkpt>
      <trkpt lat="47.27112" lon="4.9654">
        <ele>440</ele>
        <time>2012-09-07T09:46:40Z</time>
      </trkpt>
      <trkpt lat="47.27105" lon="4.96555">
        <ele>440</ele>
        <time>2012-09-07T09:46:51Z</time>
      </trkpt>
      <trkpt lat="47.27097" lon="4.9657">
        <ele>445</ele>
        <time>2012-09-07T09:47:02Z</time>
      </trkpt>
      <trkpt lat="47.27092" lon="4.9658">
        <ele>445</ele>
        <time>2012-09-07T09:47:13Z</time>
      </trkpt>
      <trkpt lat="47.27082" lon="4.966">
        <ele>430</ele>
        <time>2012-09-07T09:47:24Z</time>
      </trkpt>
      <trkpt lat="47.27072" lon="4.96617">
        <ele>430</ele>
        <time>2012-09-07T09:47:35Z</time>
      </trkpt>
      <trkpt lat="47.27057" lon="4.9664">
        <ele>428.758</ele>
        <time>2012-09-07T09:47:46Z</time>
      </trkpt>
      <trkpt lat="47.2705" lon="4.9665">
        <ele>426</ele>
        <time>2012-09-07T09:47:57Z</time>
      </trkpt>
      <trkpt lat="47.27033" lon="4.96668">
        <ele>426</ele>
        <time>2012-09-07T09:48:08Z</time>
      </trkpt>
      <trkpt lat="47.27022" lon="4.96687">
        <ele>426</ele>
        <time>2012-09-07T09:48:19Z</time>
      </trkpt>
      <trkpt lat="47.27012" lon="4.96702">
        <ele>425.377</ele>
        <time>2012-09-07T09:48:30Z</time>
      </trkpt>
      <trkpt lat="47.27007" lon="4.9672">
        <ele>424.198</ele>
        <time>2012-09-07T09:48:41Z</time>
      </trkpt>
      <trkpt lat="47.26993" lon="4.9674">
        <ele>425</ele>
        <time>2012-09-07T09:48:52Z</time>
      </trkpt>
      <trkpt lat="47.26988" lon="4.96752">
        <ele>427.472</ele>
        <time>2012-09-07T09:49:03Z</time>
      </trkpt>
      <trkpt lat="47.26982" lon="4.96762">
        <ele>427</ele>
        <time>2012-09-07T09:49:14Z</time>
      </trkpt>
      <trkpt lat="47.26975" lon="4.9677">
        <ele>427</ele>
        <time>2012-09-07T09:49:25Z</time>
      </trkpt>
      <trkpt lat="47.26967" lon="4.96782">
        <ele>359.8</ele>
        <time>2012-09-07T09:49:36Z</time>
      </trkpt>
      <trkpt lat="47.26953" lon="4.96792">
        <ele>359.3</ele>
        <time>2012-09-07T09:49:47Z</time>
      </trkpt>
      <trkpt lat="47.2694" lon="4.96805">
        <ele>355.5</ele>
        <time>2012-09-07T09:49:58Z</time>
      </trkpt>
      <trkpt lat="47.26928" lon="4.96823">
        <ele>353.8</ele>
        <time>2012-09-07T09:50:09Z</time>
      </trkpt>
      <trkpt lat="47.26922" lon="4.96835">
        <ele>351.4</ele>
        <time>2012-09-07T09:50:20Z</time>
      </trkpt>
      <trkpt lat="47.26912" lon="4.96848">
        <ele>352</ele>
        <time>2012-09-07T09:50:31Z</time>
      </trkpt>
      <trkpt lat="47.269" lon="4.96863">
        <ele>350.5</ele>
        <time>2012-09-07T09:50:42Z</time>
      </trkpt>
      <trkpt lat="47.26893" lon="4.96878">
        <ele>349.6</ele>
        <time>2012-09-07T09:50:53Z</time>
      </trkpt>
      <trkpt lat="47.26885" lon="4.9689">
        <ele>347.9</ele>
        <time>2012-09-07T09:51:04Z</time>
      </trkpt>
      <trkpt lat="47.26875" lon="4.96908">
        <ele>348.4</ele>
        <time>2012-09-07T09:51:15Z</time>
      </trkpt>
      <trkpt lat="47.2687" lon="4.96925">
        <ele>348.3</ele>
        <time>2012-09-07T09:51:26Z</time>
      </trkpt>
      <trkpt lat="47.26857" lon="4.96943">
        <ele>345.5</ele>
        <time>2012-09-07T09:51:37Z</time>
      </trkpt>
      <trkpt lat="47.26847" lon="4.96962">
        <ele>345.6</ele>
        <time>2012-09-07T09:51:48Z</time>
      </trkpt>
      <trkpt lat="47.26835" lon="4.96982">
        <ele>342.1</ele>
        <time>2012-09-07T09:51:59Z</time>
      </trkpt>
      <trkpt lat="47.26827" lon="4.97002">
        <ele>342.1</ele>
        <time>2012-09-07T09:52:10Z</time>
      </trkpt>
      <trkpt lat="47.26822" lon="4.97017">
        <ele>342</ele>
        <time>2012-09-07T09:52:21Z</time>
      </trkpt>
      <trkpt lat="47.26812" lon="4.97033">
        <ele>339.4</ele>
        <time>2012-09-07T09:52:32Z</time>
      </trkpt>
      <trkpt lat="47.26808" lon="4.97053">
        <ele>337.3</ele>
        <time>2012-09-07T09:52:43Z</time>
      </trkpt>
      <trkpt lat="47.26805" lon="4.97067">
        <ele>336.1</ele>
        <time>2012-09-07T09:52:54Z</time>
      </trkpt>
      <trkpt lat="47.26802" lon="4.97087">
        <ele>336.2</ele>
        <time>2012-09-07T09:53:05Z</time>
      </trkpt>
      <trkpt lat="47.26797" lon="4.97107">
        <ele>336.1</ele>
        <time>2012-09-07T09:53:16Z</time>
      </trkpt>
      <trkpt lat="47.26793" lon="4.97123">
        <ele>335.5</ele>
        <time>2012-09-07T09:53:27Z</time>
      </trkpt>
      <trkpt lat="47.26787" lon="4.97143">
        <ele>333.8</ele>
        <time>2012-09-07T09:53:38Z</time>
      </trkpt>
      <trkpt lat="47.26782" lon="4.9716">
        <ele>332.2</ele>
        <time>2012-09-07T09:53:49Z</time>
      </trkpt>
      <trkpt lat="47.26777" lon="4.97175">
        <ele>330.7</ele>
        <time>2012-09-07T09:54:00Z</time>
      </trkpt>
      <trkpt lat="47.26777" lon="4.97192">
        <ele>329.5</ele>
        <time>2012-09-07T09:54:11Z</time>
      </trkpt>
      <trkpt lat="47.26778" lon="4.97198">
        <ele>329.2</ele>
        <time>2012-09-07T09:54:22Z</time>
      </trkpt>
      <trkpt lat="47.26775" lon="4.97207">
        <ele>329.6</ele>
        <time>2012-09-07T09:54:33Z</time>
      </trkpt>
      <trkpt lat="47.26772" lon="4.97215">
        <ele>330.2</ele>
        <time>2012-09-07T09:54:44Z</time>
      </trkpt>
      <trkpt lat="47.26767" lon="4.97222">
        <ele>331</ele>
        <time>2012-09-07T09:54:55Z</time>
      </trkpt>
      <trkpt lat="47.26763" lon="4.97223">
        <ele>331.5</ele>
        <time>2012-09-07T09:55:06Z</time>
      </trkpt>
      <trkpt lat="47.26758" lon="4.97227">
        <ele>332.1</ele>
        <time>2012-09-07T09:55:17Z</time>
      </trkpt>
      <trkpt lat="47.26753" lon="4.97233">
        <ele>332</ele>
        <time>2012-09-07T09:55:28Z</time>
      </trkpt>
      <trkpt lat="47.26738" lon="4.97243">
        <ele>333.3</ele>
        <time>2012-09-07T09:55:39Z</time>
      </trkpt>
      <trkpt lat="47.2673" lon="4.97248">
        <ele>333.9</ele>
        <time>2012-09-07T09:55:50Z</time>
      </trkpt>
      <trkpt lat="47.26727" lon="4.9725">
        <ele>334.2</ele>
        <time>2012-09-07T09:56:01Z</time>
      </trkpt>
      <trkpt lat="47.26727" lon="4.9725">
        <ele>334.2</ele>
        <time>2012-09-07T09:56:12Z</time>
      </trkpt>
      <trkpt lat="47.26727" lon="4.9725">
        <ele>334.2</ele>
        <time>2012-09-07T09:56:23Z</time>
      </trkpt>
      <trkpt lat="47.26727" lon="4.9725">
        <ele>334.2</ele>
        <time>2012-09-07T09:56:34Z</time>
      </trkpt>
      <trkpt lat="47.26725" lon="4.97252">
        <ele>334.6</ele>
        <time>2012-09-07T09:56:45Z</time>
      </trkpt>
      <trkpt lat="47.26725" lon="4.97252">
        <ele>334.6</ele>
        <time>2012-09-07T09:56:56Z</time>
      </trkpt>
      <trkpt lat="47.26725" lon="4.97252">
        <ele>334.6</ele>
        <time>2012-09-07T09:57:07Z</time>
      </trkpt>
      <trkpt lat="47.26725" lon="4.97252">
        <ele>334.6</ele>
        <time>2012-09-07T09:57:18Z</time>
      </trkpt>
      <trkpt lat="47.26718" lon="4.97257">
        <ele>336.1</ele>
        <time>2012-09-07T09:57:29Z</time>
      </trkpt>
      <trkpt lat="47.26703" lon="4.97267">
        <ele>339.2</ele>
        <time>2012-09-07T09:57:40Z</time>
      </trkpt>
      <trkpt lat="47.2669" lon="4.97273">
        <ele>341.2</ele>
        <time>2012-09-07T09:57:51Z</time>
      </trkpt>
      <trkpt lat="47.26682" lon="4.97277">
        <ele>341.9</ele>
        <time>2012-09-07T09:58:02Z</time>
      </trkpt>
      <trkpt lat="47.26677" lon="4.97277">
        <ele>342.3</ele>
        <time>2012-09-07T09:58:13Z</time>
      </trkpt>
      <trkpt lat="47.26667" lon="4.97278">
        <ele>343</ele>
        <time>2012-09-07T09:58:24Z</time>
      </trkpt>
      <trkpt lat="47.2666" lon="4.97277">
        <ele>344.2</ele>
        <time>2012-09-07T09:58:35Z</time>
      </trkpt>
      <trkpt lat="47.26645" lon="4.97275">
        <ele>361.513</ele>
        <time>2012-09-07T09:58:46Z</time>
      </trkpt>
      <trkpt lat="47.26635" lon="4.97273">
        <ele>348.9</ele>
        <time>2012-09-07T09:58:57Z</time>
      </trkpt>
      <trkpt lat="47.26617" lon="4.9727">
        <ele>352</ele>
        <time>2012-09-07T09:59:08Z</time>
      </trkpt>
      <trkpt lat="47.26602" lon="4.97268">
        <ele>354</ele>
        <time>2012-09-07T09:59:19Z</time>
      </trkpt>
      <trkpt lat="47.2659" lon="4.9726">
        <ele>356.2</ele>
        <time>2012-09-07T09:59:30Z</time>
      </trkpt>
      <trkpt lat="47.26582" lon="4.97248">
        <ele>358.4</ele>
        <time>2012-09-07T09:59:41Z</time>
      </trkpt>
      <trkpt lat="47.26577" lon="4.9724">
        <ele>359.8</ele>
        <time>2012-09-07T09:59:52Z</time>
      </trkpt>
      <trkpt lat="47.26565" lon="4.9724">
        <ele>360.5</ele>
        <time>2012-09-07T10:00:03Z</time>
      </trkpt>
      <trkpt lat="47.26555" lon="4.9725">
        <ele>360</ele>
        <time>2012-09-07T10:00:14Z</time>
      </trkpt>
      <trkpt lat="47.26543" lon="4.97252">
        <ele>359.3</ele>
        <time>2012-09-07T10:00:25Z</time>
      </trkpt>
      <trkpt lat="47.26525" lon="4.97255">
        <ele>358.2</ele>
        <time>2012-09-07T10:00:36Z</time>
      </trkpt>
      <trkpt lat="47.26508" lon="4.97257">
        <ele>357.3</ele>
        <time>2012-09-07T10:00:47Z</time>
      </trkpt>
      <trkpt lat="47.26498" lon="4.97257">
        <ele>356.8</ele>
        <time>2012-09-07T10:00:58Z</time>
      </trkpt>
      <trkpt lat="47.26492" lon="4.97258">
        <ele>355.8</ele>
        <time>2012-09-07T10:01:09Z</time>
      </trkpt>
      <trkpt lat="47.26485" lon="4.97263">
        <ele>354.2</ele>
        <time>2012-09-07T10:01:20Z</time>
      </trkpt>
      <trkpt lat="47.26473" lon="4.9727">
        <ele>351.5</ele>
        <time>2012-09-07T10:01:31Z</time>
      </trkpt>
      <trkpt lat="47.26462" lon="4.97275">
        <ele>349.7</ele>
        <time>2012-09-07T10:01:42Z</time>
      </trkpt>
      <trkpt lat="47.26445" lon="4.97278">
        <ele>347.9</ele>
        <time>2012-09-07T10:01:53Z</time>
      </trkpt>
      <trkpt lat="47.26428" lon="4.97282">
        <ele>345.2</ele>
        <time>2012-09-07T10:02:04Z</time>
      </trkpt>
      <trkpt lat="47.26412" lon="4.97282">
        <ele>343.2</ele>
        <time>2012-09-07T10:02:15Z</time>
      </trkpt>
      <trkpt lat="47.26397" lon="4.97283">
        <ele>341.4</ele>
        <time>2012-09-07T10:02:26Z</time>
      </trkpt>
      <trkpt lat="47.26385" lon="4.97285">
        <ele>340.3</ele>
        <time>2012-09-07T10:02:37Z</time>
      </trkpt>
      <trkpt lat="47.26368" lon="4.97287">
        <ele>339.4</ele>
        <time>2012-09-07T10:02:48Z</time>
      </trkpt>
      <trkpt lat="47.26353" lon="4.97287">
        <ele>338.1</ele>
        <time>2012-09-07T10:02:59Z</time>
      </trkpt>
      <trkpt lat="47.26337" lon="4.97287">
        <ele>336.1</ele>
        <time>2012-09-07T10:03:10Z</time>
      </trkpt>
      <trkpt lat="47.26322" lon="4.97288">
        <ele>334.1</ele>
        <time>2012-09-07T10:03:21Z</time>
      </trkpt>
      <trkpt lat="47.26307" lon="4.97287">
        <ele>332.5</ele>
        <time>2012-09-07T10:03:32Z</time>
      </trkpt>
      <trkpt lat="47.26293" lon="4.97288">
        <ele>331.4</ele>
        <time>2012-09-07T10:03:43Z</time>
      </trkpt>
      <trkpt lat="47.26278" lon="4.97292">
        <ele>330</ele>
        <time>2012-09-07T10:03:54Z</time>
      </trkpt>
      <trkpt lat="47.26262" lon="4.97295">
        <ele>328.6</ele>
        <time>2012-09-07T10:04:05Z</time>
      </trkpt>
      <trkpt lat="47.26247" lon="4.973">
        <ele>326.9</ele>
        <time>2012-09-07T10:04:16Z</time>
      </trkpt>
      <trkpt lat="47.26235" lon="4.97303">
        <ele>325</ele>
        <time>2012-09-07T10:04:27Z</time>
      </trkpt>
      <trkpt lat="47.26222" lon="4.97307">
        <ele>322.9</ele>
        <time>2012-09-07T10:04:38Z</time>
      </trkpt>
      <trkpt lat="47.26208" lon="4.97318">
        <ele>321.3</ele>
        <time>2012-09-07T10:04:49Z</time>
      </trkpt>
      <trkpt lat="47.26198" lon="4.97332">
        <ele>319.5</ele>
        <time>2012-09-07T10:05:00Z</time>
      </trkpt>
      <trkpt lat="47.2619" lon="4.97347">
        <ele>318.7</ele>
        <time>2012-09-07T10:05:11Z</time>
      </trkpt>
      <trkpt lat="47.26182" lon="4.97365">
        <ele>318.3</ele>
        <time>2012-09-07T10:05:22Z</time>
      </trkpt>
      <trkpt lat="47.26175" lon="4.97387">
        <ele>317.1</ele>
        <time>2012-09-07T10:05:33Z</time>
      </trkpt>
      <trkpt lat="47.26172" lon="4.97407">
        <ele>316.4</ele>
        <time>2012-09-07T10:05:44Z</time>
      </trkpt>
      <trkpt lat="47.2617" lon="4.97428">
        <ele>315.2</ele>
        <time>2012-09-07T10:05:55Z</time>
      </trkpt>
      <trkpt lat="47.26163" lon="4.97448">
        <ele>314.1</ele>
        <time>2012-09-07T10:06:06Z</time>
      </trkpt>
      <trkpt lat="47.2616" lon="4.9747">
        <ele>313.3</ele>
        <time>2012-09-07T10:06:17Z</time>
      </trkpt>
      <trkpt lat="47.26158" lon="4.9749">
        <ele>312.5</ele>
        <time>2012-09-07T10:06:28Z</time>
      </trkpt>
      <trkpt lat="47.26158" lon="4.97508">
        <ele>311.5</ele>
        <time>2012-09-07T10:06:39Z</time>
      </trkpt>
      <trkpt lat="47.26157" lon="4.97527">
        <ele>310.3</ele>
        <time>2012-09-07T10:06:50Z</time>
      </trkpt>
      <trkpt lat="47.26155" lon="4.97547">
        <ele>308.8</ele>
        <time>2012-09-07T10:07:01Z</time>
      </trkpt>
      <trkpt lat="47.26157" lon="4.97557">
        <ele>308.2</ele>
        <time>2012-09-07T10:07:12Z</time>
      </trkpt>
      <trkpt lat="47.26158" lon="4.97562">
        <ele>312.601</ele>
        <time>2012-09-07T10:07:23Z</time>
      </trkpt>
      <trkpt lat="47.26158" lon="4.9758">
        <ele>312</ele>
        <time>2012-09-07T10:07:34Z</time>
      </trkpt>
      <trkpt lat="47.26157" lon="4.97598">
        <ele>312</ele>
        <time>2012-09-07T10:07:45Z</time>
      </trkpt>
      <trkpt lat="47.26155" lon="4.97617">
        <ele>312</ele>
        <time>2012-09-07T10:07:56Z</time>
      </trkpt>
      <trkpt lat="47.26155" lon="4.9764">
        <ele>312</ele>
        <time>2012-09-07T10:08:07Z</time>
      </trkpt>
      <trkpt lat="47.26153" lon="4.97658">
        <ele>312</ele>
        <time>2012-09-07T10:08:18Z</time>
      </trkpt>
      <trkpt lat="47.26152" lon="4.97677">
        <ele>312</ele>
        <time>2012-09-07T10:08:29Z</time>
      </trkpt>
      <trkpt lat="47.26152" lon="4.97692">
        <ele>312</ele>
        <time>2012-09-07T10:08:40Z</time>
      </trkpt>
      <trkpt lat="47.2615" lon="4.97717">
        <ele>312</ele>
        <time>2012-09-07T10:08:51Z</time>
      </trkpt>
      <trkpt lat="47.2616" lon="4.9773">
        <ele>312</ele>
        <time>2012-09-07T10:09:02Z</time>
      </trkpt>
      <trkpt lat="47.26165" lon="4.97747">
        <ele>312</ele>
        <time>2012-09-07T10:09:13Z</time>
      </trkpt>
      <trkpt lat="47.2616" lon="4.9776">
        <ele>312</ele>
        <time>2012-09-07T10:09:24Z</time>
      </trkpt>
      <trkpt lat="47.26147" lon="4.97777">
        <ele>312</ele>
        <time>2012-09-07T10:09:35Z</time>
      </trkpt>
      <trkpt lat="47.26142" lon="4.97787">
        <ele>312</ele>
        <time>2012-09-07T10:09:46Z</time>
      </trkpt>
      <trkpt lat="47.2613" lon="4.97795">
        <ele>312</ele>
        <time>2012-09-07T10:09:57Z</time>
      </trkpt>
      <trkpt lat="47.26113" lon="4.97803">
        <ele>312</ele>
        <time>2012-09-07T10:10:08Z</time>
      </trkpt>
      <trkpt lat="47.26095" lon="4.97812">
        <ele>312</ele>
        <time>2012-09-07T10:10:19Z</time>
      </trkpt>
      <trkpt lat="47.26088" lon="4.97828">
        <ele>312</ele>
        <time>2012-09-07T10:10:30Z</time>
      </trkpt>
      <trkpt lat="47.26068" lon="4.97838">
        <ele>312</ele>
        <time>2012-09-07T10:10:41Z</time>
      </trkpt>
      <trkpt lat="47.26053" lon="4.97848">
        <ele>312</ele>
        <time>2012-09-07T10:10:52Z</time>
      </trkpt>
      <trkpt lat="47.26053" lon="4.97852">
        <ele>312</ele>
        <time>2012-09-07T10:11:03Z</time>
      </trkpt>
    </trkseg>
  </trk>
</gpx>